• Join FlightAware (Why Join?)
  • Login
  • US Flag 
08:36PM EST


 

Airport Tracker/Info


-or-


 

Live Flight TrackerFlight Track Log ✈ N569SC ✈ 01-Aug-2013 ✈ KGRB - KHGR

Flight Track Log - Related Links

Times and Time Zones

All times are in EDT time to prevent confusion due to time zone crossing. See the N569SC flight status page for this flight to view local times or setup timezone preferences in your user account.

Time Position Orientation Groundspeed Altitude Reporting Facility
EDT Latitude Longitude Course Direction KTS MPH feet Rate Location/Type
09:08AM 44.4189 -88.1608 118° Southeast 246 283 5,000  Level Chicago Center
09:09AM 44.3692 -88.0700 127° Southeast 302 348 8,500 3,360 Climbing Chicago Center
09:10AM 44.3336 -87.9547 113° Southeast 319 367 12,000 3,300 Climbing Chicago Center
09:11AM 44.2956 -87.8314 113° Southeast 333 383 15,400 3,120 Climbing Minneapolis Center
09:12AM 44.2569 -87.7028 113° Southeast 350 403 18,500 2,700 Climbing Minneapolis Center
09:13AM 44.1309 -87.2191 118° Southeast  Level Estimated
09:13AM 44.2100 -87.5469 113° Southeast 365 420 21,000  Level Minneapolis Center
09:14AM 44.1631 -87.3950 113° Southeast 406 467 22,000 1,380 Climbing Minneapolis Center
09:15AM 44.1158 -87.2444 114° Southeast 421 484 23,900 960 Climbing Minneapolis Center
09:16AM 44.0728 -87.1064 113° Southeast 421 484 24,000 600 Climbing Minneapolis Center
09:17AM 44.0133 -86.9075 113° Southeast 455 524 25,200 1,860 Climbing Minneapolis Center
09:18AM 43.9625 -86.7461 114° Southeast 459 528 27,900 2,520 Climbing Minneapolis Center
09:19AM 43.9128 -86.5894 114° Southeast 447 514 30,500 2,460 Climbing Minneapolis Center
09:20AM 43.8650 -86.4378 114° Southeast 433 498 33,000 1,920 Climbing Minneapolis Center
09:21AM 43.8178 -86.2872 113° Southeast 428 493 34,500 1,200 Climbing Minneapolis Center
09:22AM 43.7675 -86.1308 114° Southeast 440 506 35,600 1,020 Climbing Chicago Center
09:23AM 43.7169 -85.9731 114° Southeast 446 513 36,700 1,080 Climbing Chicago Center
09:24AM 43.6556 -85.7825 114° Southeast 448 516 37,900 1,080 Climbing Minneapolis Center
09:25AM 43.6061 -85.6289 114° Southeast 441 507 39,000 840 Climbing Minneapolis Center
09:26AM 43.5561 -85.4772 114° Southeast 436 502 39,700 660 Climbing Minneapolis Center
09:26AM 43.5561 -85.4772 114° Southeast 435 501 39,700 480 Level Chicago Center
09:27AM 43.5058 -85.3253 114° Southeast 435 501 40,200 420 Climbing Chicago Center
09:28AM 43.4547 -85.1706 114° Southeast 440 506 40,600 360 Climbing Chicago Center
09:29AM 43.4033 -85.0158 115° Southeast 443 510 41,000 180 Climbing Chicago Center
09:30AM 43.3397 -84.8286 115° Southeast 451 519 41,000  Level Chicago Center
09:31AM 43.2858 -84.6694 115° Southeast 458 527 41,000  Level Chicago Center
09:32AM 43.2314 -84.5086 115° Southeast 463 533 41,000  Level Chicago Center
09:33AM 43.1778 -84.3517 115° Southeast 457 526 41,000  Level Chicago Center
09:34AM 43.1339 -84.2336 117° Southeast 451 519 41,000  Level Cleveland Center
09:35AM 43.0803 -84.0797 115° Southeast 451 519 41,000  Level Cleveland Center
09:36AM 43.0267 -83.9261 115° Southeast 446 513 41,000  Level Cleveland Center
09:37AM 42.9744 -83.7756 115° Southeast 446 513 41,000  Level Cleveland Center
09:38AM 42.9075 -83.6306 122° Southeast 446 513 41,000  Level Cleveland Center
09:39AM 42.8383 -83.4911 124° Southeast 446 513 41,000  Level Cleveland Center
09:40AM 42.7667 -83.3519 125° Southeast 451 519 41,000  Level Cleveland Center
09:41AM 42.6969 -83.2161 125° Southeast 451 519 41,000  Level Cleveland Center
09:42AM 42.6250 -83.0750 125° Southeast 451 519 41,000  Level Cleveland Center
09:43AM 42.5547 -82.9425 126° Southeast 451 519 41,000  Level Cleveland Center
09:44AM 42.4847 -82.8017 124° Southeast 451 519 41,000  Level Cleveland Center
09:45AM 42.4142 -82.6728 127° Southeast 446 513 41,000  Level Cleveland Center
09:46AM 42.3436 -82.5356 125° Southeast 446 513 41,000  Level Cleveland Center
09:47AM 42.2728 -82.4014 125° Southeast 446 513 41,000  Level Cleveland Center
09:48AM 42.2019 -82.2650 125° Southeast 446 513 41,000  Level Cleveland Center
09:49AM 42.1247 -82.1231 126° Southeast 441 507 41,000  Level Cleveland Center
09:50AM 42.0536 -81.9869 125° Southeast 441 507 41,000  Level Cleveland Center
09:51AM 41.9842 -81.8542 125° Southeast 440 506 41,000  Level Cleveland Center
09:52AM 41.9125 -81.7217 126° Southeast 440 506 41,000  Level Cleveland Center
09:53AM 41.8431 -81.5894 125° Southeast 440 506 41,000  Level Cleveland Center
09:54AM 41.7772 -81.4714 127° Southeast 440 506 41,000  Level Cleveland Center
09:55AM 41.7053 -81.3397 126° Southeast 440 506 41,000  Level Cleveland Center
09:56AM 41.6331 -81.2056 126° Southeast 440 506 41,000 -360 Level Cleveland Center
09:57AM 41.5608 -81.0742 126° Southeast 440 506 40,300 -1,080 Descending Cleveland Center
09:58AM 41.4800 -80.9294 127° Southeast 445 512 38,900 -1,440 Descending Cleveland Center
09:59AM 41.4053 -80.7936 126° Southeast 440 506 37,500 -1,380 Descending Cleveland Center
10:00AM 41.3325 -80.6633 127° Southeast 440 506 36,200 -1,080 Descending Cleveland Center
10:01AM 41.2636 -80.5417 127° Southeast 435 501 35,400 -1,200 Descending Cleveland Center
10:02AM 41.1969 -80.4175 125° Southeast 426 490 33,900 -1,200 Descending Cleveland Center
10:03AM 41.1364 -80.3103 127° Southeast 417 480 33,000 -480 Descending Cleveland Center
10:04AM 41.0692 -80.1892 126° Southeast 411 473 33,000 -480 Level Cleveland Center
10:05AM 41.0019 -80.0686 126° Southeast 411 473 32,100 -1,200 Descending Cleveland Center
10:06AM 40.9325 -79.9483 127° Southeast 416 479 30,700 -1,440 Descending Cleveland Center
10:07AM 40.8611 -79.8225 127° Southeast 416 479 29,300 -1,440 Descending Cleveland Center
10:08AM 40.7914 -79.7028 128° Southeast 416 479 27,900 -1,440 Descending Cleveland Center
10:09AM 40.7236 -79.5858 127° Southeast 411 473 26,500 -1,500 Descending Cleveland Center
10:10AM 40.6600 -79.4719 126° Southeast 406 467 25,000 -1,500 Descending Cleveland Center
10:11AM 40.5964 -79.3664 128° Southeast 391 450 23,600 -1,500 Descending Cleveland Center
10:12AM 40.5328 -79.2581 128° Southeast 378 435 22,100 -1,500 Descending Cleveland Center
10:13AM 40.4711 -79.1531 128° Southeast 373 429 20,700 -1,440 Descending Cleveland Center
10:14AM 40.4114 -79.0506 127° Southeast 363 418 19,300 -1,500 Descending Cleveland Center
10:15AM 40.3642 -78.9700 128° Southeast 350 403 18,100 -1,620 Descending Cleveland Center
10:16AM 40.3236 -78.9056 130° Southeast 344 396 17,100 -1,380 Descending Cleveland Center
10:16AM 40.2939 -78.8547 127° Southeast 353 406 16,400 -1,320 Descending Cleveland Center
10:17AM 40.2403 -78.7608 127° Southeast 341 392 15,000 -1,560 Descending Cleveland Center
10:18AM 40.2061 -78.7072 130° Southeast 313 360 14,100 -1,440 Descending Cleveland Center
10:18AM 40.1867 -78.6725 126° Southeast 329 379 13,600 -1,500 Descending Cleveland Center
10:19AM 40.1544 -78.6219 130° Southeast 300 345 12,600 -1,500 Descending Cleveland Center
10:19AM 40.1350 -78.5844 124° Southeast 315 362 12,100 -1,380 Descending Cleveland Center
10:20AM 40.1050 -78.5364 129° Southeast 295 339 11,200 -1,560 Descending Cleveland Center
10:21AM 40.0600 -78.4619 128° Southeast 298 343 9,900 -1,380 Descending Cleveland Center
10:21AM 40.0339 -78.4139 125° Southeast 299 344 9,200 -1,380 Descending Cleveland Center
10:22AM 39.9844 -78.3314 128° Southeast 294 338 7,800 -1,140 Descending Cleveland Center
10:23AM 39.9389 -78.2492 126° Southeast 294 338 7,000 -420 Descending Cleveland Center
10:24AM 39.8894 -78.1750 131° Southeast 288 331 7,000  Level Cleveland Center
10:26AM 39.7803 -78.0567 140° Southeast 240 276 7,000  Level Washington Center
10:27AM 39.7225 -78.0194 154° Southeast 226 260 7,000  Level Washington Center
10:28AM 39.6650 -77.9825 154° Southeast 226 260 7,000 -120 Level Washington Center
10:29AM 39.6206 -78.0161 210° Southwest 205 236 6,800 -660 Descending Washington Center
10:30AM 39.6106 -78.0911 260° West 165 190 5,800 -900 Descending Washington Center
10:31AM 39.6544 -78.0981 353° North 93 107 5,000 -420 Descending Washington Center
10:32AM 39.6706 -78.0150 76° East 100 115 5,000  Level Washington Center
10:33AM 39.6722 -77.9369 88° East 165 190 5,000  Level Washington Center
10:34AM 39.6322 -77.9519 196° South 123 142 5,000  Level Washington Center
10:35AM 39.6267 -78.0189 264° West 75 86 5,000 -600 Level Washington Center
10:36AM 39.6642 -78.0283 349° North 81 93 3,900 -720 Descending Washington Center
10:37AM 39.6761 -77.9533 78° East 104 120 3,600 -540 Descending Washington Center
10:38AM 39.6856 -77.8861 80° East 142 163 2,900 -840 Descending Washington Center
10:39AM 39.6953 -77.8217 79° East 172 198 2,000 -780 Descending Washington Center
10:40AM 39.7006 -77.7600 84° East 172 198 1,400 -600 Descending Washington Center
10:41AM 39.7078 -77.7061 80° East 164 189 800 -600 Descending Washington Center